sensor_id;sensor_type;location;lat;lon;timestamp;temperature;humidity
64937;SHT30;51452;47.698;19.050;2023-05-14T00:00:38;12.88;69.30
64937;SHT30;51452;47.698;19.050;2023-05-14T00:03:03;12.97;69.17
64937;SHT30;51452;47.698;19.050;2023-05-14T00:05:28;12.88;69.14
64937;SHT30;51452;47.698;19.050;2023-05-14T00:07:54;12.83;69.52
64937;SHT30;51452;47.698;19.050;2023-05-14T00:10:19;12.93;69.29
64937;SHT30;51452;47.698;19.050;2023-05-14T00:12:46;12.88;69.07
64937;SHT30;51452;47.698;19.050;2023-05-14T00:15:11;12.97;69.15
64937;SHT30;51452;47.698;19.050;2023-05-14T00:17:37;13.00;68.75
64937;SHT30;51452;47.698;19.050;2023-05-14T00:20:04;13.01;68.86
64937;SHT30;51452;47.698;19.050;2023-05-14T00:22:32;13.05;68.76
64937;SHT30;51452;47.698;19.050;2023-05-14T00:24:57;13.15;68.40
64937;SHT30;51452;47.698;19.050;2023-05-14T00:27:23;13.16;68.50
64937;SHT30;51452;47.698;19.050;2023-05-14T00:29:48;13.11;68.65
64937;SHT30;51452;47.698;19.050;2023-05-14T00:32:14;13.07;68.88
64937;SHT30;51452;47.698;19.050;2023-05-14T00:34:39;13.04;68.75
64937;SHT30;51452;47.698;19.050;2023-05-14T00:37:05;13.14;68.80
64937;SHT30;51452;47.698;19.050;2023-05-14T00:39:30;13.14;68.65
64937;SHT30;51452;47.698;19.050;2023-05-14T00:41:55;13.16;68.32
64937;SHT30;51452;47.698;19.050;2023-05-14T00:44:21;13.14;68.42
64937;SHT30;51452;47.698;19.050;2023-05-14T00:46:46;13.22;68.21
64937;SHT30;51452;47.698;19.050;2023-05-14T00:49:12;13.26;68.40
64937;SHT30;51452;47.698;19.050;2023-05-14T00:51:38;13.29;68.35
64937;SHT30;51452;47.698;19.050;2023-05-14T00:54:04;13.22;68.56
64937;SHT30;51452;47.698;19.050;2023-05-14T00:56:30;13.21;67.96
64937;SHT30;51452;47.698;19.050;2023-05-14T00:58:55;13.10;68.53
64937;SHT30;51452;47.698;19.050;2023-05-14T01:01:21;13.24;68.09
64937;SHT30;51452;47.698;19.050;2023-05-14T01:03:46;13.28;68.39
64937;SHT30;51452;47.698;19.050;2023-05-14T01:09:25;12.98;69.03
64937;SHT30;51452;47.698;19.050;2023-05-14T01:12:01;12.97;69.40
64937;SHT30;51452;47.698;19.050;2023-05-14T01:17:15;12.95;68.98
64937;SHT30;51452;47.698;19.050;2023-05-14T01:19:45;12.95;68.87
64937;SHT30;51452;47.698;19.050;2023-05-14T01:22:11;12.90;69.30
64937;SHT30;51452;47.698;19.050;2023-05-14T01:24:37;12.83;69.20
64937;SHT30;51452;47.698;19.050;2023-05-14T01:27:30;12.84;69.67
64937;SHT30;51452;47.698;19.050;2023-05-14T01:30:05;12.91;69.24
64937;SHT30;51452;47.698;19.050;2023-05-14T01:32:32;12.88;69.26
64937;SHT30;51452;47.698;19.050;2023-05-14T01:34:59;12.84;69.82
64937;SHT30;51452;47.698;19.050;2023-05-14T01:37:26;12.77;69.69
64937;SHT30;51452;47.698;19.050;2023-05-14T01:39:54;12.90;69.39
64937;SHT30;51452;47.698;19.050;2023-05-14T01:42:20;12.91;69.23
64937;SHT30;51452;47.698;19.050;2023-05-14T01:44:46;12.95;69.16
64937;SHT30;51452;47.698;19.050;2023-05-14T01:47:11;12.98;68.89
64937;SHT30;51452;47.698;19.050;2023-05-14T01:49:37;12.91;68.99
64937;SHT30;51452;47.698;19.050;2023-05-14T01:52:02;12.94;68.91
64937;SHT30;51452;47.698;19.050;2023-05-14T01:54:27;12.88;69.21
64937;SHT30;51452;47.698;19.050;2023-05-14T01:56:53;12.87;69.57
64937;SHT30;51452;47.698;19.050;2023-05-14T01:59:18;12.97;69.65
64937;SHT30;51452;47.698;19.050;2023-05-14T02:01:44;12.94;69.29
64937;SHT30;51452;47.698;19.050;2023-05-14T02:04:09;12.94;69.54
64937;SHT30;51452;47.698;19.050;2023-05-14T02:06:34;12.85;69.97
64937;SHT30;51452;47.698;19.050;2023-05-14T02:09:01;12.84;69.57
64937;SHT30;51452;47.698;19.050;2023-05-14T02:11:27;12.81;69.66
64937;SHT30;51452;47.698;19.050;2023-05-14T02:13:52;12.90;69.35
64937;SHT30;51452;47.698;19.050;2023-05-14T02:16:17;12.91;69.05
64937;SHT30;51452;47.698;19.050;2023-05-14T02:18:43;13.00;68.98
64937;SHT30;51452;47.698;19.050;2023-05-14T02:21:08;12.84;69.18
64937;SHT30;51452;47.698;19.050;2023-05-14T02:23:34;12.81;69.41
64937;SHT30;51452;47.698;19.050;2023-05-14T02:25:59;12.77;70.10
64937;SHT30;51452;47.698;19.050;2023-05-14T02:28:24;12.73;70.48
64937;SHT30;51452;47.698;19.050;2023-05-14T02:30:50;12.73;70.97
64937;SHT30;51452;47.698;19.050;2023-05-14T02:33:15;12.80;70.44
64937;SHT30;51452;47.698;19.050;2023-05-14T02:35:40;12.73;70.50
64937;SHT30;51452;47.698;19.050;2023-05-14T02:38:06;12.73;70.39
64937;SHT30;51452;47.698;19.050;2023-05-14T02:40:31;12.68;70.69
64937;SHT30;51452;47.698;19.050;2023-05-14T02:42:56;12.61;70.93
64937;SHT30;51452;47.698;19.050;2023-05-14T02:45:22;12.60;71.18
64937;SHT30;51452;47.698;19.050;2023-05-14T02:47:47;12.57;71.14
64937;SHT30;51452;47.698;19.050;2023-05-14T02:50:13;12.59;71.24
64937;SHT30;51452;47.698;19.050;2023-05-14T02:52:38;12.64;71.18
64937;SHT30;51452;47.698;19.050;2023-05-14T02:55:04;12.61;71.21
64937;SHT30;51452;47.698;19.050;2023-05-14T02:57:29;12.56;71.42
64937;SHT30;51452;47.698;19.050;2023-05-14T02:59:55;12.57;71.22
64937;SHT30;51452;47.698;19.050;2023-05-14T03:02:20;12.63;71.87
64937;SHT30;51452;47.698;19.050;2023-05-14T03:04:45;12.68;71.10
64937;SHT30;51452;47.698;19.050;2023-05-14T03:07:11;12.68;70.99
64937;SHT30;51452;47.698;19.050;2023-05-14T03:09:36;12.59;70.86
64937;SHT30;51452;47.698;19.050;2023-05-14T03:12:02;12.60;71.47
64937;SHT30;51452;47.698;19.050;2023-05-14T03:14:27;12.63;70.79
64937;SHT30;51452;47.698;19.050;2023-05-14T03:16:52;12.61;71.15
64937;SHT30;51452;47.698;19.050;2023-05-14T03:19:18;12.67;70.97
64937;SHT30;51452;47.698;19.050;2023-05-14T03:21:43;12.70;70.93
64937;SHT30;51452;47.698;19.050;2023-05-14T03:24:08;12.68;70.85
64937;SHT30;51452;47.698;19.050;2023-05-14T03:26:34;12.66;71.11
64937;SHT30;51452;47.698;19.050;2023-05-14T03:29:01;12.70;70.72
64937;SHT30;51452;47.698;19.050;2023-05-14T03:31:26;12.79;70.74
64937;SHT30;51452;47.698;19.050;2023-05-14T03:33:52;12.74;70.41
64937;SHT30;51452;47.698;19.050;2023-05-14T03:36:17;12.68;71.00
64937;SHT30;51452;47.698;19.050;2023-05-14T03:38:42;12.68;70.46
64937;SHT30;51452;47.698;19.050;2023-05-14T03:41:08;12.68;70.57
64937;SHT30;51452;47.698;19.050;2023-05-14T03:43:33;12.74;70.90
64937;SHT30;51452;47.698;19.050;2023-05-14T03:45:59;12.73;70.53
64937;SHT30;51452;47.698;19.050;2023-05-14T03:48:24;12.84;70.48
64937;SHT30;51452;47.698;19.050;2023-05-14T03:50:50;12.83;70.35
64937;SHT30;51452;47.698;19.050;2023-05-14T03:53:15;12.80;70.33
64937;SHT30;51452;47.698;19.050;2023-05-14T03:55:41;12.83;70.31
64937;SHT30;51452;47.698;19.050;2023-05-14T03:58:06;12.83;70.17
64937;SHT30;51452;47.698;19.050;2023-05-14T04:00:38;12.97;70.37
64937;SHT30;51452;47.698;19.050;2023-05-14T04:03:03;13.00;69.74
64937;SHT30;51452;47.698;19.050;2023-05-14T04:05:29;12.97;69.64
64937;SHT30;51452;47.698;19.050;2023-05-14T04:07:54;13.10;69.71
64937;SHT30;51452;47.698;19.050;2023-05-14T04:10:19;13.22;69.51
64937;SHT30;51452;47.698;19.050;2023-05-14T04:12:45;13.19;69.11
64937;SHT30;51452;47.698;19.050;2023-05-14T04:15:10;13.29;69.71
64937;SHT30;51452;47.698;19.050;2023-05-14T04:17:36;13.36;69.53
64937;SHT30;51452;47.698;19.050;2023-05-14T04:20:01;13.32;69.41
64937;SHT30;51452;47.698;19.050;2023-05-14T04:22:26;13.25;68.68
64937;SHT30;51452;47.698;19.050;2023-05-14T04:24:52;13.15;69.54
64937;SHT30;51452;47.698;19.050;2023-05-14T04:27:21;13.19;69.42
64937;SHT30;51452;47.698;19.050;2023-05-14T04:29:47;13.26;69.11
64937;SHT30;51452;47.698;19.050;2023-05-14T04:32:12;13.19;69.34
64937;SHT30;51452;47.698;19.050;2023-05-14T04:34:38;13.26;69.12
64937;SHT30;51452;47.698;19.050;2023-05-14T04:37:04;13.21;69.12
64937;SHT30;51452;47.698;19.050;2023-05-14T04:39:29;13.12;69.54
64937;SHT30;51452;47.698;19.050;2023-05-14T04:41:54;13.07;69.56
64937;SHT30;51452;47.698;19.050;2023-05-14T04:44:20;13.11;69.85
64937;SHT30;51452;47.698;19.050;2023-05-14T04:46:45;13.07;69.39
64937;SHT30;51452;47.698;19.050;2023-05-14T04:49:11;13.07;69.72
64937;SHT30;51452;47.698;19.050;2023-05-14T04:51:36;12.93;70.05
64937;SHT30;51452;47.698;19.050;2023-05-14T04:54:02;12.87;70.21
64937;SHT30;51452;47.698;19.050;2023-05-14T04:56:27;12.79;69.96
64937;SHT30;51452;47.698;19.050;2023-05-14T04:58:53;12.81;70.24
64937;SHT30;51452;47.698;19.050;2023-05-14T05:01:18;12.81;70.33
64937;SHT30;51452;47.698;19.050;2023-05-14T05:03:44;12.77;70.60
64937;SHT30;51452;47.698;19.050;2023-05-14T05:06:09;12.83;70.18
64937;SHT30;51452;47.698;19.050;2023-05-14T05:08:35;12.83;69.99
64937;SHT30;51452;47.698;19.050;2023-05-14T05:11:01;12.72;70.24
64937;SHT30;51452;47.698;19.050;2023-05-14T05:13:26;12.66;70.69
64937;SHT30;51452;47.698;19.050;2023-05-14T05:15:51;12.57;70.26
64937;SHT30;51452;47.698;19.050;2023-05-14T05:18:17;12.61;70.78
64937;SHT30;51452;47.698;19.050;2023-05-14T05:20:42;12.61;70.37
64937;SHT30;51452;47.698;19.050;2023-05-14T05:23:08;12.53;70.62
64937;SHT30;51452;47.698;19.050;2023-05-14T05:25:33;12.57;69.73
64937;SHT30;51452;47.698;19.050;2023-05-14T05:27:58;12.63;70.16
64937;SHT30;51452;47.698;19.050;2023-05-14T05:30:24;12.66;69.97
64937;SHT30;51452;47.698;19.050;2023-05-14T05:32:49;12.68;70.09
64937;SHT30;51452;47.698;19.050;2023-05-14T05:35:14;12.63;69.69
64937;SHT30;51452;47.698;19.050;2023-05-14T05:37:41;12.57;69.92
64937;SHT30;51452;47.698;19.050;2023-05-14T05:40:07;12.54;70.24
64937;SHT30;51452;47.698;19.050;2023-05-14T05:42:33;12.56;70.28
64937;SHT30;51452;47.698;19.050;2023-05-14T05:44:58;12.57;70.34
64937;SHT30;51452;47.698;19.050;2023-05-14T05:47:24;12.57;70.37
64937;SHT30;51452;47.698;19.050;2023-05-14T05:49:49;12.46;70.23
64937;SHT30;51452;47.698;19.050;2023-05-14T05:52:14;12.54;70.90
64937;SHT30;51452;47.698;19.050;2023-05-14T05:54:40;12.61;70.68
64937;SHT30;51452;47.698;19.050;2023-05-14T05:57:05;12.49;70.92
64937;SHT30;51452;47.698;19.050;2023-05-14T05:59:31;12.53;70.74
64937;SHT30;51452;47.698;19.050;2023-05-14T06:01:56;12.52;70.98
64937;SHT30;51452;47.698;19.050;2023-05-14T06:04:21;12.53;71.25
64937;SHT30;51452;47.698;19.050;2023-05-14T06:06:47;12.54;70.90
64937;SHT30;51452;47.698;19.050;2023-05-14T06:09:12;12.66;71.35
64937;SHT30;51452;47.698;19.050;2023-05-14T06:11:37;12.70;71.24
64937;SHT30;51452;47.698;19.050;2023-05-14T06:14:03;12.63;71.17
64937;SHT30;51452;47.698;19.050;2023-05-14T06:16:29;12.64;71.31
64937;SHT30;51452;47.698;19.050;2023-05-14T06:18:54;12.68;70.98
64937;SHT30;51452;47.698;19.050;2023-05-14T06:21:20;12.85;70.72
64937;SHT30;51452;47.698;19.050;2023-05-14T06:23:45;12.91;70.69
64937;SHT30;51452;47.698;19.050;2023-05-14T06:26:11;12.94;71.10
64937;SHT30;51452;47.698;19.050;2023-05-14T06:28:36;12.94;70.59
64937;SHT30;51452;47.698;19.050;2023-05-14T06:31:02;12.74;70.69
64937;SHT30;51452;47.698;19.050;2023-05-14T06:33:27;12.68;71.22
64937;SHT30;51452;47.698;19.050;2023-05-14T06:36:05;12.76;70.47
64937;SHT30;51452;47.698;19.050;2023-05-14T06:38:31;12.85;71.14
64937;SHT30;51452;47.698;19.050;2023-05-14T06:40:56;12.91;70.84
64937;SHT30;51452;47.698;19.050;2023-05-14T06:43:22;13.01;71.08
64937;SHT30;51452;47.698;19.050;2023-05-14T06:45:48;13.07;70.70
64937;SHT30;51452;47.698;19.050;2023-05-14T06:48:14;13.07;70.91
64937;SHT30;51452;47.698;19.050;2023-05-14T06:50:39;13.16;70.92
64937;SHT30;51452;47.698;19.050;2023-05-14T06:53:04;13.03;70.63
64937;SHT30;51452;47.698;19.050;2023-05-14T06:55:30;13.12;71.35
64937;SHT30;51452;47.698;19.050;2023-05-14T06:57:55;13.19;71.37
64937;SHT30;51452;47.698;19.050;2023-05-14T07:00:21;13.01;71.57
64937;SHT30;51452;47.698;19.050;2023-05-14T07:02:46;12.91;71.65
64937;SHT30;51452;47.698;19.050;2023-05-14T07:05:12;12.93;72.09
64937;SHT30;51452;47.698;19.050;2023-05-14T07:07:37;13.00;72.51
64937;SHT30;51452;47.698;19.050;2023-05-14T07:10:03;12.91;72.18
64937;SHT30;51452;47.698;19.050;2023-05-14T07:12:28;12.81;73.19
64937;SHT30;51452;47.698;19.050;2023-05-14T07:14:54;12.84;72.76
64937;SHT30;51452;47.698;19.050;2023-05-14T07:17:21;12.94;72.71
64937;SHT30;51452;47.698;19.050;2023-05-14T07:19:46;13.03;72.84
64937;SHT30;51452;47.698;19.050;2023-05-14T07:22:11;13.00;72.77
64937;SHT30;51452;47.698;19.050;2023-05-14T07:24:37;13.04;72.34
64937;SHT30;51452;47.698;19.050;2023-05-14T07:27:02;12.98;72.53
64937;SHT30;51452;47.698;19.050;2023-05-14T07:29:28;13.01;73.15
64937;SHT30;51452;47.698;19.050;2023-05-14T07:31:54;13.08;72.65
64937;SHT30;51452;47.698;19.050;2023-05-14T07:34:19;13.24;72.91
64937;SHT30;51452;47.698;19.050;2023-05-14T07:36:45;13.19;72.39
64937;SHT30;51452;47.698;19.050;2023-05-14T07:39:11;13.16;72.64
64937;SHT30;51452;47.698;19.050;2023-05-14T07:41:36;13.22;72.03
64937;SHT30;51452;47.698;19.050;2023-05-14T07:44:01;13.25;72.63
64937;SHT30;51452;47.698;19.050;2023-05-14T07:46:27;13.28;72.54
64937;SHT30;51452;47.698;19.050;2023-05-14T07:48:52;13.24;72.20
64937;SHT30;51452;47.698;19.050;2023-05-14T07:51:17;13.24;72.83
64937;SHT30;51452;47.698;19.050;2023-05-14T07:53:43;13.21;72.12
64937;SHT30;51452;47.698;19.050;2023-05-14T07:56:08;13.26;72.15
64937;SHT30;51452;47.698;19.050;2023-05-14T07:58:34;13.35;72.31
64937;SHT30;51452;47.698;19.050;2023-05-14T08:01:00;13.36;72.00
64937;SHT30;51452;47.698;19.050;2023-05-14T08:03:26;13.45;72.55
64937;SHT30;51452;47.698;19.050;2023-05-14T08:05:51;13.36;72.36
64937;SHT30;51452;47.698;19.050;2023-05-14T08:08:17;13.41;72.11
64937;SHT30;51452;47.698;19.050;2023-05-14T08:10:42;13.36;71.63
64937;SHT30;51452;47.698;19.050;2023-05-14T08:13:08;13.52;72.09
64937;SHT30;51452;47.698;19.050;2023-05-14T08:15:33;13.54;71.23
64937;SHT30;51452;47.698;19.050;2023-05-14T08:17:58;13.61;71.65
64937;SHT30;51452;47.698;19.050;2023-05-14T08:20:30;13.69;71.46
64937;SHT30;51452;47.698;19.050;2023-05-14T08:22:56;13.79;71.21
64937;SHT30;51452;47.698;19.050;2023-05-14T08:25:24;13.86;71.14
64937;SHT30;51452;47.698;19.050;2023-05-14T08:27:50;13.89;71.24
64937;SHT30;51452;47.698;19.050;2023-05-14T08:30:15;13.85;71.43
64937;SHT30;51452;47.698;19.050;2023-05-14T08:32:41;13.93;71.22
64937;SHT30;51452;47.698;19.050;2023-05-14T08:35:07;13.96;71.82
64937;SHT30;51452;47.698;19.050;2023-05-14T08:37:33;14.09;71.50
64937;SHT30;51452;47.698;19.050;2023-05-14T08:39:58;14.20;71.13
64937;SHT30;51452;47.698;19.050;2023-05-14T08:42:24;14.27;70.77
64937;SHT30;51452;47.698;19.050;2023-05-14T08:45:00;14.21;71.34
64937;SHT30;51452;47.698;19.050;2023-05-14T08:47:29;14.30;71.14
64937;SHT30;51452;47.698;19.050;2023-05-14T08:50:03;14.41;71.02
64937;SHT30;51452;47.698;19.050;2023-05-14T08:52:29;14.41;70.83
64937;SHT30;51452;47.698;19.050;2023-05-14T08:54:56;14.37;71.20
64937;SHT30;51452;47.698;19.050;2023-05-14T08:57:24;14.33;71.68
64937;SHT30;51452;47.698;19.050;2023-05-14T08:59:51;14.30;71.10
64937;SHT30;51452;47.698;19.050;2023-05-14T09:02:19;14.40;72.06
64937;SHT30;51452;47.698;19.050;2023-05-14T09:04:49;14.52;71.81
64937;SHT30;51452;47.698;19.050;2023-05-14T09:07:16;14.60;71.00
64937;SHT30;51452;47.698;19.050;2023-05-14T09:09:42;14.41;72.25
64937;SHT30;51452;47.698;19.050;2023-05-14T09:12:09;14.47;72.01
64937;SHT30;51452;47.698;19.050;2023-05-14T09:14:34;14.44;72.14
64937;SHT30;51452;47.698;19.050;2023-05-14T09:16:59;14.47;72.51
64937;SHT30;51452;47.698;19.050;2023-05-14T09:19:25;14.33;72.37
64937;SHT30;51452;47.698;19.050;2023-05-14T09:21:50;14.18;72.20
64937;SHT30;51452;47.698;19.050;2023-05-14T09:24:23;14.03;73.27
64937;SHT30;51452;47.698;19.050;2023-05-14T09:26:50;14.00;72.98
64937;SHT30;51452;47.698;19.050;2023-05-14T09:29:16;14.09;73.68
64937;SHT30;51452;47.698;19.050;2023-05-14T09:31:41;13.99;73.39
64937;SHT30;51452;47.698;19.050;2023-05-14T09:34:07;14.03;74.19
64937;SHT30;51452;47.698;19.050;2023-05-14T09:36:35;14.10;74.67
64937;SHT30;51452;47.698;19.050;2023-05-14T09:39:04;14.20;73.93
64937;SHT30;51452;47.698;19.050;2023-05-14T09:41:29;14.30;74.20
64937;SHT30;51452;47.698;19.050;2023-05-14T09:43:55;14.17;73.68
64937;SHT30;51452;47.698;19.050;2023-05-14T09:46:22;14.24;74.26
64937;SHT30;51452;47.698;19.050;2023-05-14T09:48:48;14.30;74.10
64937;SHT30;51452;47.698;19.050;2023-05-14T09:51:13;14.12;73.48
64937;SHT30;51452;47.698;19.050;2023-05-14T09:53:39;14.13;74.24
64937;SHT30;51452;47.698;19.050;2023-05-14T09:56:05;14.25;74.07
64937;SHT30;51452;47.698;19.050;2023-05-14T09:58:31;14.14;74.71
64937;SHT30;51452;47.698;19.050;2023-05-14T10:00:57;14.21;74.14
64937;SHT30;51452;47.698;19.050;2023-05-14T10:03:24;14.34;75.06
64937;SHT30;51452;47.698;19.050;2023-05-14T10:05:51;14.38;74.87
64937;SHT30;51452;47.698;19.050;2023-05-14T10:08:21;14.27;74.50
64937;SHT30;51452;47.698;19.050;2023-05-14T10:10:50;14.40;73.39
64937;SHT30;51452;47.698;19.050;2023-05-14T10:13:19;14.34;73.98
64937;SHT30;51452;47.698;19.050;2023-05-14T10:15:57;14.28;74.74
64937;SHT30;51452;47.698;19.050;2023-05-14T10:18:27;14.44;74.99
64937;SHT30;51452;47.698;19.050;2023-05-14T10:21:05;14.28;74.16
64937;SHT30;51452;47.698;19.050;2023-05-14T10:23:32;14.31;75.42
64937;SHT30;51452;47.698;19.050;2023-05-14T10:25:58;14.34;74.60
64937;SHT30;51452;47.698;19.050;2023-05-14T10:28:25;14.42;75.57
64937;SHT30;51452;47.698;19.050;2023-05-14T10:30:50;14.48;75.12
64937;SHT30;51452;47.698;19.050;2023-05-14T10:33:16;14.44;75.21
64937;SHT30;51452;47.698;19.050;2023-05-14T10:36:03;14.47;75.33
64937;SHT30;51452;47.698;19.050;2023-05-14T10:38:32;14.51;75.90
64937;SHT30;51452;47.698;19.050;2023-05-14T10:41:06;14.65;75.38
64937;SHT30;51452;47.698;19.050;2023-05-14T10:43:41;14.86;75.45
64937;SHT30;51452;47.698;19.050;2023-05-14T10:46:07;14.95;75.91
64937;SHT30;51452;47.698;19.050;2023-05-14T10:48:34;14.82;75.01
64937;SHT30;51452;47.698;19.050;2023-05-14T10:51:00;14.72;73.17
64937;SHT30;51452;47.698;19.050;2023-05-14T10:53:31;14.71;74.32
64937;SHT30;51452;47.698;19.050;2023-05-14T10:56:01;14.75;75.57
64937;SHT30;51452;47.698;19.050;2023-05-14T10:58:29;14.65;73.26
64937;SHT30;51452;47.698;19.050;2023-05-14T11:00:56;14.71;74.72
64937;SHT30;51452;47.698;19.050;2023-05-14T11:03:22;14.69;75.69
64937;SHT30;51452;47.698;19.050;2023-05-14T11:05:47;14.65;74.22
64937;SHT30;51452;47.698;19.050;2023-05-14T11:08:13;14.57;74.88
64937;SHT30;51452;47.698;19.050;2023-05-14T11:10:40;14.57;74.91
64937;SHT30;51452;47.698;19.050;2023-05-14T11:13:06;14.41;74.97
64937;SHT30;51452;47.698;19.050;2023-05-14T11:15:32;14.35;75.36
64937;SHT30;51452;47.698;19.050;2023-05-14T11:17:57;14.34;75.52
64937;SHT30;51452;47.698;19.050;2023-05-14T11:20:23;14.28;75.06
64937;SHT30;51452;47.698;19.050;2023-05-14T11:22:48;14.20;75.54
64937;SHT30;51452;47.698;19.050;2023-05-14T11:25:15;14.16;74.81
64937;SHT30;51452;47.698;19.050;2023-05-14T11:27:43;14.02;76.35
64937;SHT30;51452;47.698;19.050;2023-05-14T11:30:16;14.14;75.94
64937;SHT30;51452;47.698;19.050;2023-05-14T11:32:45;14.03;76.49
64937;SHT30;51452;47.698;19.050;2023-05-14T11:35:12;14.07;75.64
64937;SHT30;51452;47.698;19.050;2023-05-14T11:37:37;14.14;76.28
64937;SHT30;51452;47.698;19.050;2023-05-14T11:40:06;14.13;76.95
64937;SHT30;51452;47.698;19.050;2023-05-14T11:42:33;14.09;76.78
64937;SHT30;51452;47.698;19.050;2023-05-14T11:44:58;14.03;76.22
64937;SHT30;51452;47.698;19.050;2023-05-14T11:47:24;14.02;76.95
64937;SHT30;51452;47.698;19.050;2023-05-14T11:49:49;14.03;77.54
64937;SHT30;51452;47.698;19.050;2023-05-14T11:52:15;14.06;77.64
64937;SHT30;51452;47.698;19.050;2023-05-14T11:54:43;14.12;77.85
64937;SHT30;51452;47.698;19.050;2023-05-14T11:57:11;14.20;77.90
64937;SHT30;51452;47.698;19.050;2023-05-14T11:59:37;14.23;77.99
64937;SHT30;51452;47.698;19.050;2023-05-14T12:02:07;14.25;78.01
64937;SHT30;51452;47.698;19.050;2023-05-14T12:04:32;14.20;77.83
64937;SHT30;51452;47.698;19.050;2023-05-14T12:06:59;14.17;78.17
64937;SHT30;51452;47.698;19.050;2023-05-14T12:09:25;14.14;78.37
64937;SHT30;51452;47.698;19.050;2023-05-14T12:11:51;14.30;78.74
64937;SHT30;51452;47.698;19.050;2023-05-14T12:14:18;14.23;78.74
64937;SHT30;51452;47.698;19.050;2023-05-14T12:16:45;14.33;79.09
64937;SHT30;51452;47.698;19.050;2023-05-14T12:19:13;14.35;78.97
64937;SHT30;51452;47.698;19.050;2023-05-14T12:21:39;14.35;79.29
64937;SHT30;51452;47.698;19.050;2023-05-14T12:24:15;14.35;79.31
64937;SHT30;51452;47.698;19.050;2023-05-14T12:26:48;14.38;79.18
64937;SHT30;51452;47.698;19.050;2023-05-14T12:29:15;14.33;78.70
64937;SHT30;51452;47.698;19.050;2023-05-14T12:31:48;14.27;78.93
64937;SHT30;51452;47.698;19.050;2023-05-14T12:34:14;14.35;79.21
64937;SHT30;51452;47.698;19.050;2023-05-14T12:36:41;14.40;79.07
64937;SHT30;51452;47.698;19.050;2023-05-14T12:39:06;14.31;78.53
64937;SHT30;51452;47.698;19.050;2023-05-14T12:41:32;14.37;77.74
64937;SHT30;51452;47.698;19.050;2023-05-14T12:43:58;14.35;78.70
64937;SHT30;51452;47.698;19.050;2023-05-14T12:46:25;14.35;79.06
64937;SHT30;51452;47.698;19.050;2023-05-14T12:48:51;14.28;79.33
64937;SHT30;51452;47.698;19.050;2023-05-14T12:51:16;14.35;78.55
64937;SHT30;51452;47.698;19.050;2023-05-14T12:53:42;14.37;78.93
64937;SHT30;51452;47.698;19.050;2023-05-14T12:56:07;14.33;78.56
64937;SHT30;51452;47.698;19.050;2023-05-14T12:58:32;14.31;78.56
64937;SHT30;51452;47.698;19.050;2023-05-14T13:00:58;14.33;78.83
64937;SHT30;51452;47.698;19.050;2023-05-14T13:03:23;14.27;79.02
64937;SHT30;51452;47.698;19.050;2023-05-14T13:05:53;14.33;78.62
64937;SHT30;51452;47.698;19.050;2023-05-14T13:08:20;14.33;78.52
64937;SHT30;51452;47.698;19.050;2023-05-14T13:10:46;14.25;78.70
64937;SHT30;51452;47.698;19.050;2023-05-14T13:13:14;14.34;78.97
64937;SHT30;51452;47.698;19.050;2023-05-14T13:15:39;14.38;79.06
64937;SHT30;51452;47.698;19.050;2023-05-14T13:18:05;14.37;79.24
64937;SHT30;51452;47.698;19.050;2023-05-14T13:20:32;14.41;78.99
64937;SHT30;51452;47.698;19.050;2023-05-14T13:22:57;14.38;79.19
64937;SHT30;51452;47.698;19.050;2023-05-14T13:25:23;14.38;78.95
64937;SHT30;51452;47.698;19.050;2023-05-14T13:27:48;14.41;79.16
64937;SHT30;51452;47.698;19.050;2023-05-14T13:30:18;14.35;79.04
64937;SHT30;51452;47.698;19.050;2023-05-14T13:32:44;14.42;79.37
64937;SHT30;51452;47.698;19.050;2023-05-14T13:35:10;14.42;79.73
64937;SHT30;51452;47.698;19.050;2023-05-14T13:37:36;14.42;79.42
64937;SHT30;51452;47.698;19.050;2023-05-14T13:40:01;14.44;79.66
64937;SHT30;51452;47.698;19.050;2023-05-14T13:42:28;14.37;79.67
64937;SHT30;51452;47.698;19.050;2023-05-14T13:44:54;14.38;79.79
64937;SHT30;51452;47.698;19.050;2023-05-14T13:47:20;14.40;79.92
64937;SHT30;51452;47.698;19.050;2023-05-14T13:49:46;14.33;80.22
64937;SHT30;51452;47.698;19.050;2023-05-14T13:52:11;14.25;80.36
64937;SHT30;51452;47.698;19.050;2023-05-14T13:54:37;14.13;81.26
64937;SHT30;51452;47.698;19.050;2023-05-14T13:57:02;14.07;81.73
64937;SHT30;51452;47.698;19.050;2023-05-14T13:59:28;14.02;82.12
64937;SHT30;51452;47.698;19.050;2023-05-14T14:01:53;14.02;82.40
64937;SHT30;51452;47.698;19.050;2023-05-14T14:04:18;13.93;82.52
64937;SHT30;51452;47.698;19.050;2023-05-14T14:06:44;13.75;82.55
64937;SHT30;51452;47.698;19.050;2023-05-14T14:09:09;13.77;83.25
64937;SHT30;51452;47.698;19.050;2023-05-14T14:11:37;13.59;83.45
64937;SHT30;51452;47.698;19.050;2023-05-14T14:14:03;13.55;84.20
64937;SHT30;51452;47.698;19.050;2023-05-14T14:16:28;13.61;84.11
64937;SHT30;51452;47.698;19.050;2023-05-14T14:18:53;13.54;84.33
64937;SHT30;51452;47.698;19.050;2023-05-14T14:21:19;13.58;84.32
64937;SHT30;51452;47.698;19.050;2023-05-14T14:23:45;13.61;84.27
64937;SHT30;51452;47.698;19.050;2023-05-14T14:26:10;13.58;84.25
64937;SHT30;51452;47.698;19.050;2023-05-14T14:28:36;13.65;84.36
64937;SHT30;51452;47.698;19.050;2023-05-14T14:31:01;13.73;84.10
64937;SHT30;51452;47.698;19.050;2023-05-14T14:33:27;13.82;84.12
64937;SHT30;51452;47.698;19.050;2023-05-14T14:35:52;13.79;84.28
64937;SHT30;51452;47.698;19.050;2023-05-14T14:38:18;13.82;84.11
64937;SHT30;51452;47.698;19.050;2023-05-14T14:40:43;13.90;84.00
64937;SHT30;51452;47.698;19.050;2023-05-14T14:43:10;13.91;83.98
64937;SHT30;51452;47.698;19.050;2023-05-14T14:45:35;13.89;84.20
64937;SHT30;51452;47.698;19.050;2023-05-14T14:48:32;13.93;83.82
64937;SHT30;51452;47.698;19.050;2023-05-14T14:50:58;13.94;83.79
64937;SHT30;51452;47.698;19.050;2023-05-14T14:53:25;14.00;83.45
64937;SHT30;51452;47.698;19.050;2023-05-14T14:55:51;13.99;83.54
64937;SHT30;51452;47.698;19.050;2023-05-14T14:58:17;14.00;83.17
64937;SHT30;51452;47.698;19.050;2023-05-14T15:00:43;13.93;83.28
64937;SHT30;51452;47.698;19.050;2023-05-14T15:03:09;13.91;83.34
64937;SHT30;51452;47.698;19.050;2023-05-14T15:05:35;13.91;83.34
64937;SHT30;51452;47.698;19.050;2023-05-14T15:08:01;13.87;83.27
64937;SHT30;51452;47.698;19.050;2023-05-14T15:10:27;13.87;83.40
64937;SHT30;51452;47.698;19.050;2023-05-14T15:12:55;13.89;83.18
64937;SHT30;51452;47.698;19.050;2023-05-14T15:15:21;13.83;83.28